sensor_id;sensor_type;location;lat;lon;timestamp;P1;durP1;ratioP1;P2;durP2;ratioP2
5379;SDS011;2713;42.680;23.310;2023-08-17T00:02:10;10.63;;;8.97;;
5379;SDS011;2713;42.680;23.310;2023-08-17T00:04:37;14.43;;;10.57;;
5379;SDS011;2713;42.680;23.310;2023-08-17T00:07:04;11.77;;;9.33;;
5379;SDS011;2713;42.680;23.310;2023-08-17T00:09:31;10.43;;;9.30;;
5379;SDS011;2713;42.680;23.310;2023-08-17T00:11:58;10.97;;;9.60;;
5379;SDS011;2713;42.680;23.310;2023-08-17T00:14:25;11.60;;;9.20;;
5379;SDS011;2713;42.680;23.310;2023-08-17T00:16:53;10.83;;;9.70;;
5379;SDS011;2713;42.680;23.310;2023-08-17T00:19:20;11.07;;;9.93;;
5379;SDS011;2713;42.680;23.310;2023-08-17T00:21:46;9.83;;;8.73;;
5379;SDS011;2713;42.680;23.310;2023-08-17T00:24:13;11.60;;;9.03;;
5379;SDS011;2713;42.680;23.310;2023-08-17T00:26:40;9.73;;;8.73;;
5379;SDS011;2713;42.680;23.310;2023-08-17T00:29:07;11.60;;;8.57;;
5379;SDS011;2713;42.680;23.310;2023-08-17T00:31:34;9.43;;;8.53;;
5379;SDS011;2713;42.680;23.310;2023-08-17T00:34:02;9.00;;;7.90;;
5379;SDS011;2713;42.680;23.310;2023-08-17T00:36:30;9.70;;;8.70;;
5379;SDS011;2713;42.680;23.310;2023-08-17T00:38:57;9.50;;;8.60;;
5379;SDS011;2713;42.680;23.310;2023-08-17T00:41:23;9.03;;;7.90;;
5379;SDS011;2713;42.680;23.310;2023-08-17T00:43:50;10.70;;;7.67;;
5379;SDS011;2713;42.680;23.310;2023-08-17T00:46:17;10.40;;;7.30;;
5379;SDS011;2713;42.680;23.310;2023-08-17T00:48:45;9.80;;;7.60;;
5379;SDS011;2713;42.680;23.310;2023-08-17T00:51:14;10.93;;;7.90;;
5379;SDS011;2713;42.680;23.310;2023-08-17T00:53:42;7.93;;;6.67;;
5379;SDS011;2713;42.680;23.310;2023-08-17T00:56:08;11.27;;;7.13;;
5379;SDS011;2713;42.680;23.310;2023-08-17T00:58:35;8.60;;;6.70;;
5379;SDS011;2713;42.680;23.310;2023-08-17T01:01:06;7.83;;;7.03;;
5379;SDS011;2713;42.680;23.310;2023-08-17T01:03:35;7.77;;;7.07;;
5379;SDS011;2713;42.680;23.310;2023-08-17T01:06:02;7.73;;;6.70;;
5379;SDS011;2713;42.680;23.310;2023-08-17T01:08:30;12.33;;;6.97;;
5379;SDS011;2713;42.680;23.310;2023-08-17T01:10:59;7.80;;;7.10;;
5379;SDS011;2713;42.680;23.310;2023-08-17T01:13:34;7.70;;;6.57;;
5379;SDS011;2713;42.680;23.310;2023-08-17T01:16:05;9.20;;;6.73;;
5379;SDS011;2713;42.680;23.310;2023-08-17T01:18:38;10.53;;;6.67;;
5379;SDS011;2713;42.680;23.310;2023-08-17T01:21:08;8.13;;;7.13;;
5379;SDS011;2713;42.680;23.310;2023-08-17T01:23:40;9.90;;;6.57;;
5379;SDS011;2713;42.680;23.310;2023-08-17T01:26:07;8.23;;;6.60;;
5379;SDS011;2713;42.680;23.310;2023-08-17T01:28:34;9.23;;;6.93;;
5379;SDS011;2713;42.680;23.310;2023-08-17T01:31:08;7.30;;;5.70;;
5379;SDS011;2713;42.680;23.310;2023-08-17T01:34:04;7.67;;;5.90;;
5379;SDS011;2713;42.680;23.310;2023-08-17T01:36:35;7.10;;;6.50;;
5379;SDS011;2713;42.680;23.310;2023-08-17T01:39:07;7.10;;;6.40;;
5379;SDS011;2713;42.680;23.310;2023-08-17T01:41:36;7.73;;;6.23;;
5379;SDS011;2713;42.680;23.310;2023-08-17T01:44:05;6.53;;;5.87;;
5379;SDS011;2713;42.680;23.310;2023-08-17T01:46:33;8.60;;;6.60;;
5379;SDS011;2713;42.680;23.310;2023-08-17T01:49:00;6.87;;;5.87;;
5379;SDS011;2713;42.680;23.310;2023-08-17T01:51:29;7.17;;;5.80;;
5379;SDS011;2713;42.680;23.310;2023-08-17T01:53:56;6.23;;;5.63;;
5379;SDS011;2713;42.680;23.310;2023-08-17T01:56:24;6.63;;;6.03;;
5379;SDS011;2713;42.680;23.310;2023-08-17T01:58:51;6.83;;;6.13;;
5379;SDS011;2713;42.680;23.310;2023-08-17T02:01:17;5.90;;;5.40;;
5379;SDS011;2713;42.680;23.310;2023-08-17T02:03:44;6.47;;;5.40;;
5379;SDS011;2713;42.680;23.310;2023-08-17T02:06:11;6.10;;;5.50;;
5379;SDS011;2713;42.680;23.310;2023-08-17T02:08:38;5.80;;;5.20;;
5379;SDS011;2713;42.680;23.310;2023-08-17T02:11:04;9.90;;;6.03;;
5379;SDS011;2713;42.680;23.310;2023-08-17T02:13:33;7.70;;;5.70;;
5379;SDS011;2713;42.680;23.310;2023-08-17T02:16:02;7.13;;;6.30;;
5379;SDS011;2713;42.680;23.310;2023-08-17T02:18:29;5.97;;;5.40;;
5379;SDS011;2713;42.680;23.310;2023-08-17T02:20:58;5.87;;;5.37;;
5379;SDS011;2713;42.680;23.310;2023-08-17T02:23:25;6.30;;;5.70;;
5379;SDS011;2713;42.680;23.310;2023-08-17T02:25:51;6.20;;;5.60;;
5379;SDS011;2713;42.680;23.310;2023-08-17T02:28:20;7.40;;;6.00;;
5379;SDS011;2713;42.680;23.310;2023-08-17T02:30:48;6.40;;;5.80;;
5379;SDS011;2713;42.680;23.310;2023-08-17T02:33:15;7.00;;;6.00;;
5379;SDS011;2713;42.680;23.310;2023-08-17T02:35:42;6.83;;;5.00;;
5379;SDS011;2713;42.680;23.310;2023-08-17T02:38:09;6.70;;;5.60;;
5379;SDS011;2713;42.680;23.310;2023-08-17T02:40:35;6.53;;;5.73;;
5379;SDS011;2713;42.680;23.310;2023-08-17T02:43:02;5.97;;;5.33;;
5379;SDS011;2713;42.680;23.310;2023-08-17T02:45:29;8.33;;;5.80;;
5379;SDS011;2713;42.680;23.310;2023-08-17T02:47:58;7.37;;;5.97;;
5379;SDS011;2713;42.680;23.310;2023-08-17T02:50:24;6.33;;;5.70;;
5379;SDS011;2713;42.680;23.310;2023-08-17T02:52:51;7.97;;;5.80;;
5379;SDS011;2713;42.680;23.310;2023-08-17T02:55:18;6.20;;;5.60;;
5379;SDS011;2713;42.680;23.310;2023-08-17T02:57:45;9.70;;;5.83;;
5379;SDS011;2713;42.680;23.310;2023-08-17T03:00:13;7.77;;;5.80;;
5379;SDS011;2713;42.680;23.310;2023-08-17T03:02:40;6.90;;;5.73;;
5379;SDS011;2713;42.680;23.310;2023-08-17T03:05:08;7.57;;;5.93;;
5379;SDS011;2713;42.680;23.310;2023-08-17T03:07:35;6.70;;;6.00;;
5379;SDS011;2713;42.680;23.310;2023-08-17T03:10:02;6.73;;;5.87;;
5379;SDS011;2713;42.680;23.310;2023-08-17T03:12:29;7.33;;;5.97;;
5379;SDS011;2713;42.680;23.310;2023-08-17T03:14:56;7.93;;;5.60;;
5379;SDS011;2713;42.680;23.310;2023-08-17T03:17:23;7.47;;;5.90;;
5379;SDS011;2713;42.680;23.310;2023-08-17T03:19:50;6.63;;;5.87;;
5379;SDS011;2713;42.680;23.310;2023-08-17T03:22:18;8.90;;;6.10;;
5379;SDS011;2713;42.680;23.310;2023-08-17T03:24:45;6.80;;;5.50;;
5379;SDS011;2713;42.680;23.310;2023-08-17T03:27:11;6.70;;;5.80;;
5379;SDS011;2713;42.680;23.310;2023-08-17T03:29:38;7.10;;;5.80;;
5379;SDS011;2713;42.680;23.310;2023-08-17T03:32:05;9.43;;;5.93;;
5379;SDS011;2713;42.680;23.310;2023-08-17T03:34:32;6.50;;;5.90;;
5379;SDS011;2713;42.680;23.310;2023-08-17T03:37:00;8.73;;;4.87;;
5379;SDS011;2713;42.680;23.310;2023-08-17T03:39:29;6.30;;;5.70;;
5379;SDS011;2713;42.680;23.310;2023-08-17T03:41:56;8.03;;;5.67;;
5379;SDS011;2713;42.680;23.310;2023-08-17T03:44:22;6.63;;;5.97;;
5379;SDS011;2713;42.680;23.310;2023-08-17T03:46:49;6.20;;;5.57;;
5379;SDS011;2713;42.680;23.310;2023-08-17T03:49:16;5.43;;;4.90;;
5379;SDS011;2713;42.680;23.310;2023-08-17T03:51:43;8.40;;;5.70;;
5379;SDS011;2713;42.680;23.310;2023-08-17T03:54:10;5.87;;;5.27;;
5379;SDS011;2713;42.680;23.310;2023-08-17T03:56:39;6.90;;;5.57;;
5379;SDS011;2713;42.680;23.310;2023-08-17T03:59:06;6.10;;;4.87;;
5379;SDS011;2713;42.680;23.310;2023-08-17T04:01:33;5.63;;;5.10;;
5379;SDS011;2713;42.680;23.310;2023-08-17T04:04:00;6.10;;;5.40;;
5379;SDS011;2713;42.680;23.310;2023-08-17T04:06:27;6.23;;;5.63;;
5379;SDS011;2713;42.680;23.310;2023-08-17T04:08:54;5.87;;;5.30;;
5379;SDS011;2713;42.680;23.310;2023-08-17T04:11:21;6.97;;;5.77;;
5379;SDS011;2713;42.680;23.310;2023-08-17T04:13:50;5.90;;;5.30;;
5379;SDS011;2713;42.680;23.310;2023-08-17T04:16:19;8.90;;;5.33;;
5379;SDS011;2713;42.680;23.310;2023-08-17T04:18:46;6.07;;;4.80;;
5379;SDS011;2713;42.680;23.310;2023-08-17T04:21:13;9.20;;;6.30;;
5379;SDS011;2713;42.680;23.310;2023-08-17T04:23:41;8.33;;;5.33;;
5379;SDS011;2713;42.680;23.310;2023-08-17T04:26:07;5.50;;;5.00;;
5379;SDS011;2713;42.680;23.310;2023-08-17T04:28:34;6.30;;;5.03;;
5379;SDS011;2713;42.680;23.310;2023-08-17T04:31:02;6.43;;;5.80;;
5379;SDS011;2713;42.680;23.310;2023-08-17T04:33:33;6.60;;;5.90;;
5379;SDS011;2713;42.680;23.310;2023-08-17T04:36:00;7.70;;;6.20;;
5379;SDS011;2713;42.680;23.310;2023-08-17T04:38:27;8.77;;;6.10;;
5379;SDS011;2713;42.680;23.310;2023-08-17T04:40:55;7.30;;;5.60;;
5379;SDS011;2713;42.680;23.310;2023-08-17T04:43:21;9.90;;;6.00;;
5379;SDS011;2713;42.680;23.310;2023-08-17T04:45:48;6.03;;;4.90;;
5379;SDS011;2713;42.680;23.310;2023-08-17T04:48:17;6.67;;;5.97;;
5379;SDS011;2713;42.680;23.310;2023-08-17T04:50:45;7.57;;;5.63;;
5379;SDS011;2713;42.680;23.310;2023-08-17T04:53:12;8.00;;;6.47;;
5379;SDS011;2713;42.680;23.310;2023-08-17T04:55:39;9.73;;;6.93;;
5379;SDS011;2713;42.680;23.310;2023-08-17T04:58:05;8.00;;;6.47;;
5379;SDS011;2713;42.680;23.310;2023-08-17T05:00:32;7.73;;;6.93;;
5379;SDS011;2713;42.680;23.310;2023-08-17T05:02:59;7.60;;;6.90;;
5379;SDS011;2713;42.680;23.310;2023-08-17T05:05:33;14.10;;;6.53;;
5379;SDS011;2713;42.680;23.310;2023-08-17T05:08:03;10.97;;;6.80;;
5379;SDS011;2713;42.680;23.310;2023-08-17T05:10:30;11.97;;;7.80;;
5379;SDS011;2713;42.680;23.310;2023-08-17T05:12:57;11.90;;;8.20;;
5379;SDS011;2713;42.680;23.310;2023-08-17T05:15:24;12.00;;;8.80;;
5379;SDS011;2713;42.680;23.310;2023-08-17T05:17:51;10.63;;;8.00;;
5379;SDS011;2713;42.680;23.310;2023-08-17T05:20:18;13.40;;;8.53;;
5379;SDS011;2713;42.680;23.310;2023-08-17T05:22:47;10.40;;;7.70;;
5379;SDS011;2713;42.680;23.310;2023-08-17T05:25:14;9.13;;;7.37;;
5379;SDS011;2713;42.680;23.310;2023-08-17T05:27:41;13.50;;;7.83;;
5379;SDS011;2713;42.680;23.310;2023-08-17T05:30:09;9.70;;;7.27;;
5379;SDS011;2713;42.680;23.310;2023-08-17T05:32:36;9.87;;;7.37;;
5379;SDS011;2713;42.680;23.310;2023-08-17T05:35:03;10.00;;;7.60;;
5379;SDS011;2713;42.680;23.310;2023-08-17T05:37:30;9.33;;;6.63;;
5379;SDS011;2713;42.680;23.310;2023-08-17T05:39:59;12.30;;;7.03;;
5379;SDS011;2713;42.680;23.310;2023-08-17T05:42:26;7.17;;;6.47;;
5379;SDS011;2713;42.680;23.310;2023-08-17T05:44:53;7.53;;;6.63;;
5379;SDS011;2713;42.680;23.310;2023-08-17T05:47:27;8.57;;;6.17;;
5379;SDS011;2713;42.680;23.310;2023-08-17T05:50:02;7.63;;;6.93;;
5379;SDS011;2713;42.680;23.310;2023-08-17T05:53:08;6.43;;;5.83;;
5379;SDS011;2713;42.680;23.310;2023-08-17T05:56:47;6.83;;;5.73;;
5379;SDS011;2713;42.680;23.310;2023-08-17T05:59:29;7.70;;;5.33;;
5379;SDS011;2713;42.680;23.310;2023-08-17T06:05:50;6.07;;;5.57;;
5379;SDS011;2713;42.680;23.310;2023-08-17T06:13:07;10.73;;;6.37;;
5379;SDS011;2713;42.680;23.310;2023-08-17T06:15:34;8.17;;;7.40;;
5379;SDS011;2713;42.680;23.310;2023-08-17T06:18:01;9.03;;;7.77;;
5379;SDS011;2713;42.680;23.310;2023-08-17T06:20:28;9.73;;;8.07;;
5379;SDS011;2713;42.680;23.310;2023-08-17T06:22:54;9.70;;;8.70;;
5379;SDS011;2713;42.680;23.310;2023-08-17T06:25:21;9.43;;;8.53;;
5379;SDS011;2713;42.680;23.310;2023-08-17T06:27:48;9.23;;;8.23;;
5379;SDS011;2713;42.680;23.310;2023-08-17T06:30:17;10.80;;;8.53;;
5379;SDS011;2713;42.680;23.310;2023-08-17T06:32:44;8.07;;;7.27;;
5379;SDS011;2713;42.680;23.310;2023-08-17T06:35:11;7.83;;;6.97;;
5379;SDS011;2713;42.680;23.310;2023-08-17T06:37:38;9.17;;;7.00;;
5379;SDS011;2713;42.680;23.310;2023-08-17T06:40:05;11.23;;;7.33;;
5379;SDS011;2713;42.680;23.310;2023-08-17T06:42:41;10.20;;;7.67;;
5379;SDS011;2713;42.680;23.310;2023-08-17T06:45:08;10.47;;;7.00;;
5379;SDS011;2713;42.680;23.310;2023-08-17T06:47:36;11.13;;;7.70;;
5379;SDS011;2713;42.680;23.310;2023-08-17T06:50:03;8.10;;;6.20;;
5379;SDS011;2713;42.680;23.310;2023-08-17T06:52:31;7.67;;;6.80;;
5379;SDS011;2713;42.680;23.310;2023-08-17T06:54:59;8.90;;;6.53;;
5379;SDS011;2713;42.680;23.310;2023-08-17T06:57:25;9.60;;;7.03;;
5379;SDS011;2713;42.680;23.310;2023-08-17T06:59:52;9.13;;;6.70;;
5379;SDS011;2713;42.680;23.310;2023-08-17T07:02:20;6.20;;;5.53;;
5379;SDS011;2713;42.680;23.310;2023-08-17T07:04:48;6.80;;;6.20;;
5379;SDS011;2713;42.680;23.310;2023-08-17T07:07:15;6.60;;;6.00;;
5379;SDS011;2713;42.680;23.310;2023-08-17T07:09:42;10.47;;;7.47;;
5379;SDS011;2713;42.680;23.310;2023-08-17T07:12:09;7.23;;;6.37;;
5379;SDS011;2713;42.680;23.310;2023-08-17T07:14:36;7.13;;;6.20;;
5379;SDS011;2713;42.680;23.310;2023-08-17T07:17:03;6.83;;;6.23;;
5379;SDS011;2713;42.680;23.310;2023-08-17T07:19:30;11.30;;;6.63;;
5379;SDS011;2713;42.680;23.310;2023-08-17T07:21:58;6.97;;;6.37;;
5379;SDS011;2713;42.680;23.310;2023-08-17T07:24:25;7.93;;;6.03;;
5379;SDS011;2713;42.680;23.310;2023-08-17T07:26:52;6.17;;;5.50;;
5379;SDS011;2713;42.680;23.310;2023-08-17T07:29:18;5.70;;;5.00;;
5379;SDS011;2713;42.680;23.310;2023-08-17T07:31:45;6.03;;;5.40;;
5379;SDS011;2713;42.680;23.310;2023-08-17T07:34:12;6.77;;;4.77;;
5379;SDS011;2713;42.680;23.310;2023-08-17T07:36:38;6.00;;;4.70;;
5379;SDS011;2713;42.680;23.310;2023-08-17T07:39:07;5.53;;;5.03;;
5379;SDS011;2713;42.680;23.310;2023-08-17T07:41:33;7.03;;;4.87;;
5379;SDS011;2713;42.680;23.310;2023-08-17T07:44:01;5.57;;;5.07;;
5379;SDS011;2713;42.680;23.310;2023-08-17T07:46:33;5.50;;;4.97;;
5379;SDS011;2713;42.680;23.310;2023-08-17T07:49:00;6.40;;;5.80;;
5379;SDS011;2713;42.680;23.310;2023-08-17T07:51:27;6.60;;;5.97;;
5379;SDS011;2713;42.680;23.310;2023-08-17T07:53:55;5.47;;;4.97;;
5379;SDS011;2713;42.680;23.310;2023-08-17T07:56:23;6.07;;;5.57;;
5379;SDS011;2713;42.680;23.310;2023-08-17T07:58:50;6.03;;;5.53;;
5379;SDS011;2713;42.680;23.310;2023-08-17T08:01:16;8.37;;;6.10;;
5379;SDS011;2713;42.680;23.310;2023-08-17T08:03:43;7.23;;;6.20;;
5379;SDS011;2713;42.680;23.310;2023-08-17T08:06:10;7.80;;;6.07;;
5379;SDS011;2713;42.680;23.310;2023-08-17T08:08:37;8.17;;;5.73;;
5379;SDS011;2713;42.680;23.310;2023-08-17T08:11:04;5.83;;;5.40;;
5379;SDS011;2713;42.680;23.310;2023-08-17T08:13:32;6.00;;;5.40;;
5379;SDS011;2713;42.680;23.310;2023-08-17T08:16:00;6.70;;;5.10;;
5379;SDS011;2713;42.680;23.310;2023-08-17T08:18:27;7.10;;;5.83;;
5379;SDS011;2713;42.680;23.310;2023-08-17T08:20:53;6.60;;;6.00;;
5379;SDS011;2713;42.680;23.310;2023-08-17T08:23:23;8.00;;;5.80;;
5379;SDS011;2713;42.680;23.310;2023-08-17T08:25:49;5.63;;;5.23;;
5379;SDS011;2713;42.680;23.310;2023-08-17T08:28:16;5.33;;;4.80;;
5379;SDS011;2713;42.680;23.310;2023-08-17T08:30:44;9.50;;;4.90;;
5379;SDS011;2713;42.680;23.310;2023-08-17T08:33:11;7.33;;;5.80;;
5379;SDS011;2713;42.680;23.310;2023-08-17T08:35:39;6.03;;;4.93;;
5379;SDS011;2713;42.680;23.310;2023-08-17T08:38:06;8.50;;;6.30;;
5379;SDS011;2713;42.680;23.310;2023-08-17T08:40:34;7.70;;;5.57;;
5379;SDS011;2713;42.680;23.310;2023-08-17T08:43:04;5.70;;;5.30;;
5379;SDS011;2713;42.680;23.310;2023-08-17T08:45:32;8.50;;;5.93;;
5379;SDS011;2713;42.680;23.310;2023-08-17T08:48:01;7.80;;;5.17;;
5379;SDS011;2713;42.680;23.310;2023-08-17T08:50:31;6.00;;;5.50;;
5379;SDS011;2713;42.680;23.310;2023-08-17T08:53:02;5.57;;;5.07;;
5379;SDS011;2713;42.680;23.310;2023-08-17T08:55:32;6.97;;;5.93;;
5379;SDS011;2713;42.680;23.310;2023-08-17T08:58:05;7.90;;;5.20;;
5379;SDS011;2713;42.680;23.310;2023-08-17T09:00:33;6.23;;;5.63;;
5379;SDS011;2713;42.680;23.310;2023-08-17T09:03:05;7.90;;;5.50;;
5379;SDS011;2713;42.680;23.310;2023-08-17T09:05:32;6.07;;;5.50;;
5379;SDS011;2713;42.680;23.310;2023-08-17T09:08:00;10.43;;;5.37;;
5379;SDS011;2713;42.680;23.310;2023-08-17T09:10:28;7.33;;;5.90;;
5379;SDS011;2713;42.680;23.310;2023-08-17T09:12:55;5.83;;;5.37;;
5379;SDS011;2713;42.680;23.310;2023-08-17T09:15:22;6.43;;;5.80;;
5379;SDS011;2713;42.680;23.310;2023-08-17T09:17:48;9.13;;;5.87;;
5379;SDS011;2713;42.680;23.310;2023-08-17T09:20:39;5.33;;;4.83;;
5379;SDS011;2713;42.680;23.310;2023-08-17T09:23:10;6.77;;;6.17;;
5379;SDS011;2713;42.680;23.310;2023-08-17T09:25:39;5.90;;;5.30;;
5379;SDS011;2713;42.680;23.310;2023-08-17T09:28:08;5.60;;;5.10;;
5379;SDS011;2713;42.680;23.310;2023-08-17T09:30:48;5.83;;;5.40;;
5379;SDS011;2713;42.680;23.310;2023-08-17T09:33:17;5.70;;;4.90;;
5379;SDS011;2713;42.680;23.310;2023-08-17T09:35:45;5.33;;;4.77;;
5379;SDS011;2713;42.680;23.310;2023-08-17T09:38:12;5.73;;;5.33;;
5379;SDS011;2713;42.680;23.310;2023-08-17T09:40:39;7.37;;;4.47;;
5379;SDS011;2713;42.680;23.310;2023-08-17T09:43:05;4.80;;;4.40;;
5379;SDS011;2713;42.680;23.310;2023-08-17T09:45:32;5.77;;;5.37;;
5379;SDS011;2713;42.680;23.310;2023-08-17T09:47:59;5.47;;;4.97;;
5379;SDS011;2713;42.680;23.310;2023-08-17T09:50:26;4.70;;;4.30;;
5379;SDS011;2713;42.680;23.310;2023-08-17T09:52:55;5.27;;;4.87;;
5379;SDS011;2713;42.680;23.310;2023-08-17T09:55:22;5.27;;;4.77;;
5379;SDS011;2713;42.680;23.310;2023-08-17T09:57:49;8.63;;;5.33;;
5379;SDS011;2713;42.680;23.310;2023-08-17T10:25:06;4.40;;;4.00;;
5379;SDS011;2713;42.680;23.310;2023-08-17T10:27:36;4.30;;;3.90;;
5379;SDS011;2713;42.680;23.310;2023-08-17T10:30:04;4.27;;;3.87;;
5379;SDS011;2713;42.680;23.310;2023-08-17T10:32:31;5.27;;;3.93;;
5379;SDS011;2713;42.680;23.310;2023-08-17T10:34:58;5.87;;;3.90;;
5379;SDS011;2713;42.680;23.310;2023-08-17T10:37:25;3.93;;;3.63;;
5379;SDS011;2713;42.680;23.310;2023-08-17T10:39:52;4.77;;;4.47;;
5379;SDS011;2713;42.680;23.310;2023-08-17T10:42:31;3.70;;;3.43;;
5379;SDS011;2713;42.680;23.310;2023-08-17T10:44:58;6.30;;;3.97;;
5379;SDS011;2713;42.680;23.310;2023-08-17T10:47:27;5.63;;;4.33;;
5379;SDS011;2713;42.680;23.310;2023-08-17T10:49:55;4.83;;;4.33;;
5379;SDS011;2713;42.680;23.310;2023-08-17T10:52:27;4.37;;;3.90;;
5379;SDS011;2713;42.680;23.310;2023-08-17T10:54:55;3.87;;;3.57;;
5379;SDS011;2713;42.680;23.310;2023-08-17T10:57:34;4.27;;;3.87;;
5379;SDS011;2713;42.680;23.310;2023-08-17T11:02:55;6.70;;;4.57;;
5379;SDS011;2713;42.680;23.310;2023-08-17T11:05:43;4.77;;;4.30;;
5379;SDS011;2713;42.680;23.310;2023-08-17T11:08:19;4.27;;;3.87;;
5379;SDS011;2713;42.680;23.310;2023-08-17T11:10:47;4.30;;;3.90;;
5379;SDS011;2713;42.680;23.310;2023-08-17T11:13:16;10.43;;;4.17;;
5379;SDS011;2713;42.680;23.310;2023-08-17T11:15:43;6.07;;;3.87;;
5379;SDS011;2713;42.680;23.310;2023-08-17T11:18:13;5.47;;;4.20;;
5379;SDS011;2713;42.680;23.310;2023-08-17T11:20:40;4.80;;;4.30;;
5379;SDS011;2713;42.680;23.310;2023-08-17T11:23:08;5.30;;;4.90;;
5379;SDS011;2713;42.680;23.310;2023-08-17T11:25:36;5.20;;;4.70;;
5379;SDS011;2713;42.680;23.310;2023-08-17T11:28:03;4.57;;;4.17;;
5379;SDS011;2713;42.680;23.310;2023-08-17T11:30:35;5.50;;;5.00;;
5379;SDS011;2713;42.680;23.310;2023-08-17T11:33:04;5.77;;;5.17;;
5379;SDS011;2713;42.680;23.310;2023-08-17T11:35:32;4.93;;;4.63;;
5379;SDS011;2713;42.680;23.310;2023-08-17T11:37:59;4.80;;;4.50;;
5379;SDS011;2713;42.680;23.310;2023-08-17T11:40:26;5.80;;;5.20;;
5379;SDS011;2713;42.680;23.310;2023-08-17T11:42:53;5.63;;;4.80;;
5379;SDS011;2713;42.680;23.310;2023-08-17T11:45:20;4.63;;;4.30;;
5379;SDS011;2713;42.680;23.310;2023-08-17T11:47:48;5.70;;;5.20;;
5379;SDS011;2713;42.680;23.310;2023-08-17T11:50:15;5.03;;;4.63;;
5379;SDS011;2713;42.680;23.310;2023-08-17T11:52:42;4.70;;;4.30;;
5379;SDS011;2713;42.680;23.310;2023-08-17T11:55:09;11.20;;;4.70;;
5379;SDS011;2713;42.680;23.310;2023-08-17T11:57:36;5.27;;;4.87;;
5379;SDS011;2713;42.680;23.310;2023-08-17T12:00:03;6.73;;;4.70;;
5379;SDS011;2713;42.680;23.310;2023-08-17T12:02:32;5.63;;;5.13;;
5379;SDS011;2713;42.680;23.310;2023-08-17T12:05:04;4.83;;;4.53;;
5379;SDS011;2713;42.680;23.310;2023-08-17T12:07:32;6.53;;;4.90;;
5379;SDS011;2713;42.680;23.310;2023-08-17T12:09:59;5.97;;;5.37;;
5379;SDS011;2713;42.680;23.310;2023-08-17T12:12:25;5.50;;;5.03;;
5379;SDS011;2713;42.680;23.310;2023-08-17T12:14:53;5.90;;;5.37;;
5379;SDS011;2713;42.680;23.310;2023-08-17T12:17:20;4.80;;;4.40;;
5379;SDS011;2713;42.680;23.310;2023-08-17T12:19:48;5.47;;;4.60;;
5379;SDS011;2713;42.680;23.310;2023-08-17T12:22:17;6.93;;;5.20;;
5379;SDS011;2713;42.680;23.310;2023-08-17T12:24:44;6.10;;;5.50;;
5379;SDS011;2713;42.680;23.310;2023-08-17T12:27:11;7.80;;;5.50;;
5379;SDS011;2713;42.680;23.310;2023-08-17T12:29:46;6.30;;;5.80;;
5379;SDS011;2713;42.680;23.310;2023-08-17T12:32:13;9.83;;;6.73;;
5379;SDS011;2713;42.680;23.310;2023-08-17T12:34:41;6.57;;;5.93;;
5379;SDS011;2713;42.680;23.310;2023-08-17T12:37:08;9.83;;;6.40;;
5379;SDS011;2713;42.680;23.310;2023-08-17T12:39:36;6.80;;;6.20;;
5379;SDS011;2713;42.680;23.310;2023-08-17T12:42:03;5.83;;;5.33;;
5379;SDS011;2713;42.680;23.310;2023-08-17T12:44:30;8.43;;;6.27;;
5379;SDS011;2713;42.680;23.310;2023-08-17T12:46:57;6.60;;;6.00;;
5379;SDS011;2713;42.680;23.310;2023-08-17T12:49:24;7.80;;;7.00;;
5379;SDS011;2713;42.680;23.310;2023-08-17T12:51:51;8.37;;;7.33;;
5379;SDS011;2713;42.680;23.310;2023-08-17T12:54:18;9.33;;;7.60;;
5379;SDS011;2713;42.680;23.310;2023-08-17T12:56:46;8.03;;;7.23;;
5379;SDS011;2713;42.680;23.310;2023-08-17T12:59:13;8.20;;;7.40;;
5379;SDS011;2713;42.680;23.310;2023-08-17T13:01:40;8.33;;;7.53;;
5379;SDS011;2713;42.680;23.310;2023-08-17T13:04:07;7.77;;;7.07;;
5379;SDS011;2713;42.680;23.310;2023-08-17T13:06:33;11.00;;;8.60;;
5379;SDS011;2713;42.680;23.310;2023-08-17T13:09:00;7.63;;;7.00;;
5379;SDS011;2713;42.680;23.310;2023-08-17T13:11:27;8.00;;;7.20;;
5379;SDS011;2713;42.680;23.310;2023-08-17T13:13:55;7.20;;;6.53;;
5379;SDS011;2713;42.680;23.310;2023-08-17T13:16:22;8.13;;;7.10;;
5379;SDS011;2713;42.680;23.310;2023-08-17T13:18:49;7.33;;;6.63;;
5379;SDS011;2713;42.680;23.310;2023-08-17T13:21:16;6.80;;;6.30;;
5379;SDS011;2713;42.680;23.310;2023-08-17T13:23:45;7.60;;;6.40;;
5379;SDS011;2713;42.680;23.310;2023-08-17T13:26:11;7.40;;;6.70;;
5379;SDS011;2713;42.680;23.310;2023-08-17T13:28:38;8.00;;;6.67;;
5379;SDS011;2713;42.680;23.310;2023-08-17T13:31:06;9.10;;;7.50;;
5379;SDS011;2713;42.680;23.310;2023-08-17T13:33:33;7.67;;;7.07;;
5379;SDS011;2713;42.680;23.310;2023-08-17T13:36:00;10.77;;;7.57;;
5379;SDS011;2713;42.680;23.310;2023-08-17T13:38:27;8.30;;;7.50;;
5379;SDS011;2713;42.680;23.310;2023-08-17T13:40:54;8.07;;;7.00;;
5379;SDS011;2713;42.680;23.310;2023-08-17T13:43:21;7.43;;;6.70;;
5379;SDS011;2713;42.680;23.310;2023-08-17T13:45:47;7.63;;;7.03;;
5379;SDS011;2713;42.680;23.310;2023-08-17T13:48:16;7.33;;;6.77;;
5379;SDS011;2713;42.680;23.310;2023-08-17T13:50:42;7.83;;;7.07;;
5379;SDS011;2713;42.680;23.310;2023-08-17T13:53:10;8.00;;;7.33;;
5379;SDS011;2713;42.680;23.310;2023-08-17T13:55:36;8.07;;;6.67;;
5379;SDS011;2713;42.680;23.310;2023-08-17T13:58:03;7.20;;;6.43;;
5379;SDS011;2713;42.680;23.310;2023-08-17T14:00:30;7.60;;;6.90;;
5379;SDS011;2713;42.680;23.310;2023-08-17T14:02:57;7.07;;;6.47;;
5379;SDS011;2713;42.680;23.310;2023-08-17T14:05:25;8.27;;;7.57;;
5379;SDS011;2713;42.680;23.310;2023-08-17T14:07:52;7.70;;;6.90;;
5379;SDS011;2713;42.680;23.310;2023-08-17T14:10:19;8.97;;;7.53;;
5379;SDS011;2713;42.680;23.310;2023-08-17T14:12:46;12.67;;;8.47;;
5379;SDS011;2713;42.680;23.310;2023-08-17T14:15:13;11.40;;;7.40;;
5379;SDS011;2713;42.680;23.310;2023-08-17T14:17:40;8.50;;;7.70;;
5379;SDS011;2713;42.680;23.310;2023-08-17T14:20:07;8.13;;;6.60;;
5379;SDS011;2713;42.680;23.310;2023-08-17T14:22:36;7.00;;;6.40;;
5379;SDS011;2713;42.680;23.310;2023-08-17T14:25:03;10.80;;;10.00;;
5379;SDS011;2713;42.680;23.310;2023-08-17T14:27:30;8.20;;;7.40;;
5379;SDS011;2713;42.680;23.310;2023-08-17T14:29:57;15.53;;;8.23;;
5379;SDS011;2713;42.680;23.310;2023-08-17T14:32:26;6.70;;;6.20;;
5379;SDS011;2713;42.680;23.310;2023-08-17T14:34:54;10.00;;;6.30;;
5379;SDS011;2713;42.680;23.310;2023-08-17T14:37:20;17.33;;;7.03;;
5379;SDS011;2713;42.680;23.310;2023-08-17T14:39:48;7.30;;;6.70;;
5379;SDS011;2713;42.680;23.310;2023-08-17T14:42:15;7.30;;;6.70;;
5379;SDS011;2713;42.680;23.310;2023-08-17T14:44:42;7.40;;;6.63;;
5379;SDS011;2713;42.680;23.310;2023-08-17T14:47:09;9.60;;;6.47;;
5379;SDS011;2713;42.680;23.310;2023-08-17T14:49:35;7.67;;;6.67;;
5379;SDS011;2713;42.680;23.310;2023-08-17T14:52:02;9.67;;;7.57;;
5379;SDS011;2713;42.680;23.310;2023-08-17T14:54:30;7.87;;;7.07;;
5379;SDS011;2713;42.680;23.310;2023-08-17T14:56:58;7.00;;;6.40;;
5379;SDS011;2713;42.680;23.310;2023-08-17T14:59:25;7.77;;;6.17;;
5379;SDS011;2713;42.680;23.310;2023-08-17T15:01:51;9.57;;;6.43;;
5379;SDS011;2713;42.680;23.310;2023-08-17T15:04:21;6.77;;;6.10;;
5379;SDS011;2713;42.680;23.310;2023-08-17T15:06:47;7.90;;;7.10;;
5379;SDS011;2713;42.680;23.310;2023-08-17T15:09:14;8.73;;;6.30;;
5379;SDS011;2713;42.680;23.310;2023-08-17T15:11:41;22.90;;;8.67;;
5379;SDS011;2713;42.680;23.310;2023-08-17T15:14:09;12.30;;;7.83;;
5379;SDS011;2713;42.680;23.310;2023-08-17T15:16:36;12.60;;;8.80;;
5379;SDS011;2713;42.680;23.310;2023-08-17T15:19:06;11.70;;;7.77;;
5379;SDS011;2713;42.680;23.310;2023-08-17T15:21:33;10.17;;;8.00;;
5379;SDS011;2713;42.680;23.310;2023-08-17T15:24:02;7.67;;;6.97;;
5379;SDS011;2713;42.680;23.310;2023-08-17T15:26:29;9.83;;;7.50;;
5379;SDS011;2713;42.680;23.310;2023-08-17T15:28:56;7.20;;;6.50;;
5379;SDS011;2713;42.680;23.310;2023-08-17T15:31:24;6.93;;;6.17;;
5379;SDS011;2713;42.680;23.310;2023-08-17T15:33:51;8.70;;;7.83;;
5379;SDS011;2713;42.680;23.310;2023-08-17T15:36:17;6.97;;;6.33;;
5379;SDS011;2713;42.680;23.310;2023-08-17T15:38:46;11.23;;;8.07;;
5379;SDS011;2713;42.680;23.310;2023-08-17T15:41:13;7.97;;;7.00;;
5379;SDS011;2713;42.680;23.310;2023-08-17T15:43:40;8.00;;;6.83;;